Terminal Aerodrome Forecast
Issued by NWS Cleveland, OH

Home | Current Version | Previous Version | Graphics & Text | Print | Product List | Glossary Off
Versions: 1 2 3 4 5 6 7 8 9 10 11 12 13 14 15 16 17 18 19 20 21 22 23 24 25 26 27

000
FTUS41 KCLE 222000 AAA
TAFMFD
TAF AMD
KMFD 222006Z 2220/2318 34004KT P6SM VCTS BKN035CB
     FM230000 34004KT P6SM BKN035
     FM230600 VRB03KT 4SM BR SCT015 BKN120
     FM230900 VRB03KT 1 1/2SM BR BKN003
      TEMPO 2311/2313 1/2SM FG
     FM231400 VRB04KT P6SM OVC020=

USA.gov is the U.S. government's official web portal to all federal, state and local government web resources and services.